sensor_id;sensor_type;location;lat;lon;timestamp;pressure;altitude;pressure_sealevel;temperature;humidity
61814;BME280;73144;-35.164;149.098;2024-02-26T00:00:00;94196.37;;;18.75;52.37
61814;BME280;73144;-35.164;149.098;2024-02-26T00:02:29;94195.43;;;19.17;51.76
61814;BME280;73144;-35.164;149.098;2024-02-26T00:04:58;94193.38;;;19.01;50.77
61814;BME280;73144;-35.164;149.098;2024-02-26T00:07:27;94191.89;;;19.53;50.88
61814;BME280;73144;-35.164;149.098;2024-02-26T00:09:56;94185.96;;;19.53;50.07
61814;BME280;73144;-35.164;149.098;2024-02-26T00:12:25;94184.12;;;19.85;50.69
61814;BME280;73144;-35.164;149.098;2024-02-26T00:14:54;94185.19;;;19.69;49.63
61814;BME280;73144;-35.164;149.098;2024-02-26T00:17:24;94183.67;;;19.83;49.74
61814;BME280;73144;-35.164;149.098;2024-02-26T00:19:53;94184.98;;;19.77;49.58
61814;BME280;73144;-35.164;149.098;2024-02-26T00:22:22;94184.90;;;19.97;49.13
61814;BME280;73144;-35.164;149.098;2024-02-26T00:24:52;94188.68;;;20.13;48.94
61814;BME280;73144;-35.164;149.098;2024-02-26T00:27:21;94184.21;;;20.41;50.87
61814;BME280;73144;-35.164;149.098;2024-02-26T00:29:50;94182.36;;;20.51;49.43
61814;BME280;73144;-35.164;149.098;2024-02-26T00:32:19;94177.72;;;20.60;48.77
61814;BME280;73144;-35.164;149.098;2024-02-26T00:34:48;94174.93;;;20.51;47.83
61814;BME280;73144;-35.164;149.098;2024-02-26T00:37:18;94175.96;;;20.61;48.36
61814;BME280;73144;-35.164;149.098;2024-02-26T00:39:47;94172.17;;;20.77;47.13
61814;BME280;73144;-35.164;149.098;2024-02-26T00:42:16;94170.23;;;21.01;47.12
61814;BME280;73144;-35.164;149.098;2024-02-26T00:44:46;94160.78;;;20.75;47.07
61814;BME280;73144;-35.164;149.098;2024-02-26T00:47:15;94159.21;;;21.00;47.86
61814;BME280;73144;-35.164;149.098;2024-02-26T00:49:44;94154.59;;;21.15;46.58
61814;BME280;73144;-35.164;149.098;2024-02-26T00:52:14;94154.78;;;20.99;47.07
61814;BME280;73144;-35.164;149.098;2024-02-26T00:54:43;94152.92;;;21.10;47.83
61814;BME280;73144;-35.164;149.098;2024-02-26T00:57:12;94151.45;;;21.30;47.57
61814;BME280;73144;-35.164;149.098;2024-02-26T00:59:42;94154.63;;;21.68;46.44
61814;BME280;73144;-35.164;149.098;2024-02-26T01:02:11;94152.33;;;21.76;46.84
61814;BME280;73144;-35.164;149.098;2024-02-26T01:04:40;94149.16;;;21.74;47.28
61814;BME280;73144;-35.164;149.098;2024-02-26T01:07:10;94154.56;;;21.61;46.31
61814;BME280;73144;-35.164;149.098;2024-02-26T01:09:39;94148.85;;;21.64;46.70
61814;BME280;73144;-35.164;149.098;2024-02-26T01:12:08;94143.97;;;22.15;45.42
61814;BME280;73144;-35.164;149.098;2024-02-26T01:14:38;94145.52;;;21.85;46.24
61814;BME280;73144;-35.164;149.098;2024-02-26T01:17:08;94140.18;;;21.99;47.49
61814;BME280;73144;-35.164;149.098;2024-02-26T01:19:36;94137.73;;;22.06;46.04
61814;BME280;73144;-35.164;149.098;2024-02-26T01:22:06;94140.25;;;22.69;46.69
61814;BME280;73144;-35.164;149.098;2024-02-26T01:24:35;94135.81;;;22.38;44.68
61814;BME280;73144;-35.164;149.098;2024-02-26T01:27:05;94135.11;;;22.59;44.44
61814;BME280;73144;-35.164;149.098;2024-02-26T01:29:34;94131.36;;;22.48;43.52
61814;BME280;73144;-35.164;149.098;2024-02-26T01:32:03;94125.36;;;22.40;44.82
61814;BME280;73144;-35.164;149.098;2024-02-26T01:34:32;94120.67;;;22.54;44.35
61814;BME280;73144;-35.164;149.098;2024-02-26T01:37:01;94115.01;;;22.61;43.38
61814;BME280;73144;-35.164;149.098;2024-02-26T01:39:31;94112.94;;;22.89;43.60
61814;BME280;73144;-35.164;149.098;2024-02-26T01:42:01;94115.54;;;22.95;42.75
61814;BME280;73144;-35.164;149.098;2024-02-26T01:44:29;94110.76;;;23.14;43.07
61814;BME280;73144;-35.164;149.098;2024-02-26T01:46:59;94108.64;;;23.18;43.15
61814;BME280;73144;-35.164;149.098;2024-02-26T01:49:28;94105.62;;;23.19;42.33
61814;BME280;73144;-35.164;149.098;2024-02-26T01:51:58;94104.68;;;23.11;41.43
61814;BME280;73144;-35.164;149.098;2024-02-26T01:54:28;94100.27;;;23.32;41.95
61814;BME280;73144;-35.164;149.098;2024-02-26T01:56:58;94102.93;;;23.21;42.48
61814;BME280;73144;-35.164;149.098;2024-02-26T01:59:27;94107.92;;;23.40;42.12
61814;BME280;73144;-35.164;149.098;2024-02-26T02:01:59;94105.37;;;23.27;41.17
61814;BME280;73144;-35.164;149.098;2024-02-26T02:04:29;94110.84;;;23.70;42.05
61814;BME280;73144;-35.164;149.098;2024-02-26T02:06:59;94107.50;;;23.72;40.66
61814;BME280;73144;-35.164;149.098;2024-02-26T02:09:29;94106.36;;;23.56;40.07
61814;BME280;73144;-35.164;149.098;2024-02-26T02:11:58;94104.92;;;23.48;41.14
61814;BME280;73144;-35.164;149.098;2024-02-26T02:14:28;94103.86;;;23.77;41.17
61814;BME280;73144;-35.164;149.098;2024-02-26T02:16:57;94108.74;;;23.67;39.91
61814;BME280;73144;-35.164;149.098;2024-02-26T02:19:26;94104.26;;;23.54;40.50
61814;BME280;73144;-35.164;149.098;2024-02-26T02:21:55;94101.73;;;23.84;40.68
61814;BME280;73144;-35.164;149.098;2024-02-26T02:24:25;94098.68;;;23.77;40.63
61814;BME280;73144;-35.164;149.098;2024-02-26T02:26:54;94098.39;;;23.77;39.35
61814;BME280;73144;-35.164;149.098;2024-02-26T02:29:23;94093.22;;;24.06;38.29
61814;BME280;73144;-35.164;149.098;2024-02-26T02:31:53;94093.16;;;23.83;39.56
61814;BME280;73144;-35.164;149.098;2024-02-26T02:34:22;94092.78;;;23.82;38.62
61814;BME280;73144;-35.164;149.098;2024-02-26T02:36:53;94086.80;;;24.06;37.80
61814;BME280;73144;-35.164;149.098;2024-02-26T02:39:23;94081.72;;;23.88;36.81
61814;BME280;73144;-35.164;149.098;2024-02-26T02:41:52;94082.70;;;24.08;37.90
61814;BME280;73144;-35.164;149.098;2024-02-26T02:44:22;94082.98;;;24.31;36.72
61814;BME280;73144;-35.164;149.098;2024-02-26T02:46:51;94083.02;;;23.99;36.43
61814;BME280;73144;-35.164;149.098;2024-02-26T02:49:20;94082.17;;;24.08;35.74
61814;BME280;73144;-35.164;149.098;2024-02-26T02:51:49;94082.71;;;24.19;35.58
61814;BME280;73144;-35.164;149.098;2024-02-26T02:54:19;94084.44;;;24.59;34.27
61814;BME280;73144;-35.164;149.098;2024-02-26T02:56:48;94080.61;;;24.36;29.95
61814;BME280;73144;-35.164;149.098;2024-02-26T02:59:17;94078.07;;;24.39;32.31
61814;BME280;73144;-35.164;149.098;2024-02-26T03:01:46;94078.69;;;24.58;30.05
61814;BME280;73144;-35.164;149.098;2024-02-26T03:04:16;94071.01;;;24.35;34.14
61814;BME280;73144;-35.164;149.098;2024-02-26T03:06:45;94071.95;;;24.62;36.32
61814;BME280;73144;-35.164;149.098;2024-02-26T03:09:14;94073.50;;;24.01;35.90
61814;BME280;73144;-35.164;149.098;2024-02-26T03:11:43;94070.23;;;24.38;33.30
61814;BME280;73144;-35.164;149.098;2024-02-26T03:14:13;94070.26;;;24.53;31.34
61814;BME280;73144;-35.164;149.098;2024-02-26T03:16:42;94062.48;;;24.76;32.46
61814;BME280;73144;-35.164;149.098;2024-02-26T03:19:11;94056.37;;;24.72;32.36
61814;BME280;73144;-35.164;149.098;2024-02-26T03:21:42;94062.56;;;24.41;32.11
61814;BME280;73144;-35.164;149.098;2024-02-26T03:24:12;94056.86;;;24.59;31.22
61814;BME280;73144;-35.164;149.098;2024-02-26T03:26:41;94051.35;;;24.46;33.39
61814;BME280;73144;-35.164;149.098;2024-02-26T03:29:10;94044.14;;;24.28;33.19
61814;BME280;73144;-35.164;149.098;2024-02-26T03:31:39;94045.31;;;24.58;33.87
61814;BME280;73144;-35.164;149.098;2024-02-26T03:34:08;94045.99;;;24.47;34.13
61814;BME280;73144;-35.164;149.098;2024-02-26T03:36:38;94043.17;;;24.79;34.48
61814;BME280;73144;-35.164;149.098;2024-02-26T03:39:07;94038.83;;;24.62;34.86
61814;BME280;73144;-35.164;149.098;2024-02-26T03:41:36;94034.19;;;24.59;35.32
61814;BME280;73144;-35.164;149.098;2024-02-26T03:44:06;94033.57;;;24.81;34.58
61814;BME280;73144;-35.164;149.098;2024-02-26T03:46:35;94030.49;;;24.78;35.03
61814;BME280;73144;-35.164;149.098;2024-02-26T03:49:04;94029.59;;;24.83;34.49
61814;BME280;73144;-35.164;149.098;2024-02-26T03:51:33;94026.04;;;24.92;35.20
61814;BME280;73144;-35.164;149.098;2024-02-26T03:54:03;94024.37;;;24.70;34.47
61814;BME280;73144;-35.164;149.098;2024-02-26T03:56:32;94021.90;;;25.05;35.24
61814;BME280;73144;-35.164;149.098;2024-02-26T03:59:01;94019.10;;;25.14;35.64
61814;BME280;73144;-35.164;149.098;2024-02-26T04:01:30;94011.56;;;24.86;34.50
61814;BME280;73144;-35.164;149.098;2024-02-26T04:04:00;94008.68;;;25.04;34.47
61814;BME280;73144;-35.164;149.098;2024-02-26T04:06:29;94006.12;;;25.23;33.95
61814;BME280;73144;-35.164;149.098;2024-02-26T04:08:58;94008.52;;;25.11;34.57
61814;BME280;73144;-35.164;149.098;2024-02-26T04:11:27;94006.37;;;25.27;33.79
61814;BME280;73144;-35.164;149.098;2024-02-26T04:13:57;94001.02;;;25.12;34.28
61814;BME280;73144;-35.164;149.098;2024-02-26T04:16:26;94002.83;;;25.55;33.35
61814;BME280;73144;-35.164;149.098;2024-02-26T04:18:55;93995.21;;;25.23;34.26
61814;BME280;73144;-35.164;149.098;2024-02-26T04:21:24;93991.21;;;25.46;34.76
61814;BME280;73144;-35.164;149.098;2024-02-26T04:23:54;93988.04;;;25.39;33.58
61814;BME280;73144;-35.164;149.098;2024-02-26T04:26:23;93987.53;;;25.24;34.54
61814;BME280;73144;-35.164;149.098;2024-02-26T04:28:52;93988.75;;;25.45;34.88
61814;BME280;73144;-35.164;149.098;2024-02-26T04:31:22;93992.61;;;25.54;34.81
61814;BME280;73144;-35.164;149.098;2024-02-26T04:33:51;93989.41;;;25.44;33.51
61814;BME280;73144;-35.164;149.098;2024-02-26T04:36:20;93985.81;;;25.39;34.85
61814;BME280;73144;-35.164;149.098;2024-02-26T04:38:49;93987.59;;;25.48;33.44
61814;BME280;73144;-35.164;149.098;2024-02-26T04:41:18;93982.76;;;25.61;33.66
61814;BME280;73144;-35.164;149.098;2024-02-26T04:43:47;93982.85;;;25.71;34.00
61814;BME280;73144;-35.164;149.098;2024-02-26T04:46:16;93981.37;;;25.40;33.21
61814;BME280;73144;-35.164;149.098;2024-02-26T04:48:46;93977.03;;;25.31;33.74
61814;BME280;73144;-35.164;149.098;2024-02-26T04:51:15;93975.40;;;25.84;33.59
61814;BME280;73144;-35.164;149.098;2024-02-26T04:53:44;93969.15;;;25.47;33.26
61814;BME280;73144;-35.164;149.098;2024-02-26T04:56:14;93965.46;;;25.88;33.64
61814;BME280;73144;-35.164;149.098;2024-02-26T04:58:43;93963.80;;;25.64;33.84
61814;BME280;73144;-35.164;149.098;2024-02-26T05:01:12;93958.07;;;25.56;33.15
61814;BME280;73144;-35.164;149.098;2024-02-26T05:03:41;93963.82;;;25.50;33.29
61814;BME280;73144;-35.164;149.098;2024-02-26T05:06:10;93956.66;;;25.69;33.28
61814;BME280;73144;-35.164;149.098;2024-02-26T05:08:39;93959.97;;;25.42;33.37
61814;BME280;73144;-35.164;149.098;2024-02-26T05:11:09;93957.41;;;25.62;33.75
61814;BME280;73144;-35.164;149.098;2024-02-26T05:13:38;93955.40;;;25.44;33.64
61814;BME280;73144;-35.164;149.098;2024-02-26T05:16:07;93957.17;;;25.76;34.02
61814;BME280;73144;-35.164;149.098;2024-02-26T05:18:36;93950.79;;;25.64;32.79
61814;BME280;73144;-35.164;149.098;2024-02-26T05:21:06;93948.47;;;25.54;32.74
61814;BME280;73144;-35.164;149.098;2024-02-26T05:23:35;93946.11;;;25.40;33.16
61814;BME280;73144;-35.164;149.098;2024-02-26T05:26:04;93944.89;;;25.64;33.49
61814;BME280;73144;-35.164;149.098;2024-02-26T05:28:34;93947.19;;;25.77;34.56
61814;BME280;73144;-35.164;149.098;2024-02-26T05:31:03;93946.58;;;25.60;34.08
61814;BME280;73144;-35.164;149.098;2024-02-26T05:33:32;93939.80;;;25.49;33.49
61814;BME280;73144;-35.164;149.098;2024-02-26T05:36:01;93936.10;;;25.69;34.21
61814;BME280;73144;-35.164;149.098;2024-02-26T05:38:30;93929.18;;;25.54;33.42
61814;BME280;73144;-35.164;149.098;2024-02-26T05:41:00;93930.97;;;25.76;33.94
61814;BME280;73144;-35.164;149.098;2024-02-26T05:43:29;93936.05;;;25.79;34.89
61814;BME280;73144;-35.164;149.098;2024-02-26T05:45:58;93943.80;;;25.76;33.73
61814;BME280;73144;-35.164;149.098;2024-02-26T05:48:27;93935.09;;;25.66;33.49
61814;BME280;73144;-35.164;149.098;2024-02-26T05:50:56;93932.75;;;25.68;34.04
61814;BME280;73144;-35.164;149.098;2024-02-26T05:53:26;93937.55;;;25.49;34.73
61814;BME280;73144;-35.164;149.098;2024-02-26T05:55:55;93934.95;;;25.28;35.08
61814;BME280;73144;-35.164;149.098;2024-02-26T05:58:24;93932.11;;;25.25;35.09
61814;BME280;73144;-35.164;149.098;2024-02-26T06:00:54;93930.68;;;25.55;35.80
61814;BME280;73144;-35.164;149.098;2024-02-26T06:03:23;93928.19;;;25.52;34.96
61814;BME280;73144;-35.164;149.098;2024-02-26T06:05:52;93931.83;;;25.85;33.80
61814;BME280;73144;-35.164;149.098;2024-02-26T06:08:21;93929.79;;;25.55;34.65
61814;BME280;73144;-35.164;149.098;2024-02-26T06:10:51;93930.99;;;25.56;35.07
61814;BME280;73144;-35.164;149.098;2024-02-26T06:13:20;93934.53;;;25.55;35.32
61814;BME280;73144;-35.164;149.098;2024-02-26T06:15:49;93938.10;;;25.46;36.50
61814;BME280;73144;-35.164;149.098;2024-02-26T06:18:18;93938.00;;;25.48;35.21
61814;BME280;73144;-35.164;149.098;2024-02-26T06:20:48;93938.38;;;25.35;36.22
61814;BME280;73144;-35.164;149.098;2024-02-26T06:23:17;93935.91;;;25.64;36.46
61814;BME280;73144;-35.164;149.098;2024-02-26T06:25:46;93931.66;;;25.55;37.19
61814;BME280;73144;-35.164;149.098;2024-02-26T06:28:16;93934.08;;;25.17;37.51
61814;BME280;73144;-35.164;149.098;2024-02-26T06:30:45;93931.49;;;25.17;38.57
61814;BME280;73144;-35.164;149.098;2024-02-26T06:33:14;93930.45;;;25.30;38.11
61814;BME280;73144;-35.164;149.098;2024-02-26T06:35:43;93934.82;;;25.38;38.39
61814;BME280;73144;-35.164;149.098;2024-02-26T06:38:12;93937.79;;;25.06;38.95
61814;BME280;73144;-35.164;149.098;2024-02-26T06:40:42;93941.75;;;25.38;38.81
61814;BME280;73144;-35.164;149.098;2024-02-26T06:43:11;93944.82;;;25.39;38.47
61814;BME280;73144;-35.164;149.098;2024-02-26T06:45:40;93947.80;;;25.32;38.84
61814;BME280;73144;-35.164;149.098;2024-02-26T06:48:09;93944.13;;;24.97;39.16
61814;BME280;73144;-35.164;149.098;2024-02-26T06:50:38;93949.91;;;25.17;39.69
61814;BME280;73144;-35.164;149.098;2024-02-26T06:53:08;93946.63;;;24.99;40.53
61814;BME280;73144;-35.164;149.098;2024-02-26T06:55:37;93955.56;;;25.00;41.52
61814;BME280;73144;-35.164;149.098;2024-02-26T06:58:06;93953.68;;;24.88;41.56
61814;BME280;73144;-35.164;149.098;2024-02-26T07:00:35;93956.64;;;24.91;43.03
61814;BME280;73144;-35.164;149.098;2024-02-26T07:03:05;93956.97;;;24.63;45.73
61814;BME280;73144;-35.164;149.098;2024-02-26T07:05:34;93968.73;;;24.33;47.40
61814;BME280;73144;-35.164;149.098;2024-02-26T07:08:03;93972.72;;;24.21;47.54
61814;BME280;73144;-35.164;149.098;2024-02-26T07:10:32;93981.78;;;24.22;47.57
61814;BME280;73144;-35.164;149.098;2024-02-26T07:13:01;93979.51;;;24.60;47.87
61814;BME280;73144;-35.164;149.098;2024-02-26T07:15:31;93985.54;;;24.32;48.09
61814;BME280;73144;-35.164;149.098;2024-02-26T07:18:00;93991.67;;;24.44;48.36
61814;BME280;73144;-35.164;149.098;2024-02-26T07:20:29;93999.14;;;24.04;48.71
61814;BME280;73144;-35.164;149.098;2024-02-26T07:22:59;94001.33;;;24.08;48.82
61814;BME280;73144;-35.164;149.098;2024-02-26T07:25:27;94009.05;;;23.87;49.47
61814;BME280;73144;-35.164;149.098;2024-02-26T07:27:56;94020.72;;;23.63;49.58
61814;BME280;73144;-35.164;149.098;2024-02-26T07:30:25;94025.33;;;23.39;50.00
61814;BME280;73144;-35.164;149.098;2024-02-26T07:32:54;94033.02;;;23.23;50.38
61814;BME280;73144;-35.164;149.098;2024-02-26T07:35:24;94034.87;;;23.36;50.57
61814;BME280;73144;-35.164;149.098;2024-02-26T07:37:53;94042.41;;;23.22;51.06
61814;BME280;73144;-35.164;149.098;2024-02-26T07:40:22;94043.50;;;23.11;51.18
61814;BME280;73144;-35.164;149.098;2024-02-26T07:42:51;94053.67;;;23.21;51.15
61814;BME280;73144;-35.164;149.098;2024-02-26T07:45:20;94061.33;;;22.84;51.12
61814;BME280;73144;-35.164;149.098;2024-02-26T07:47:49;94070.21;;;22.80;51.02
61814;BME280;73144;-35.164;149.098;2024-02-26T07:50:18;94078.47;;;22.59;51.51
61814;BME280;73144;-35.164;149.098;2024-02-26T07:52:47;94084.73;;;22.67;51.43
61814;BME280;73144;-35.164;149.098;2024-02-26T07:55:17;94086.48;;;22.58;51.33
61814;BME280;73144;-35.164;149.098;2024-02-26T07:57:46;94094.76;;;22.40;51.55
61814;BME280;73144;-35.164;149.098;2024-02-26T08:00:16;94103.25;;;22.19;51.96
61814;BME280;73144;-35.164;149.098;2024-02-26T08:02:44;94108.90;;;22.03;52.00
61814;BME280;73144;-35.164;149.098;2024-02-26T08:05:14;94119.88;;;21.73;52.61
61814;BME280;73144;-35.164;149.098;2024-02-26T08:07:42;94115.44;;;21.59;52.41
61814;BME280;73144;-35.164;149.098;2024-02-26T08:10:12;94118.42;;;21.45;52.49
61814;BME280;73144;-35.164;149.098;2024-02-26T08:12:40;94128.01;;;21.74;52.61
61814;BME280;73144;-35.164;149.098;2024-02-26T08:15:10;94124.37;;;21.62;52.52
